Time,TemperatureF,DewpointF,PressureIn,WindDirection,WindDirectionDegrees,WindSpeedMPH,WindSpeedGustMPH,Humidity,HourlyPrecipIn,Conditions,Clouds,dailyrainin,SoftwareType,DateUTC
2013-04-18 00:10:00,38.8,16.0,29.90,WNW,288,1.0,5.0,39,0.00,,,0.00,weatherlink.com 1.10,2013-04-18 06:10:00,
2013-04-18 00:25:00,37.9,15.0,29.91,WSW,250,0.0,1.0,40,0.00,,,0.00,weatherlink.com 1.10,2013-04-18 06:25:00,
2013-04-18 00:40:00,37.1,15.0,29.92,WSW,249,0.0,2.0,41,0.00,,,0.00,weatherlink.com 1.10,2013-04-18 06:40:00,
2013-04-18 00:55:00,35.9,15.0,29.93,West,263,0.0,1.0,42,0.00,,,0.00,weatherlink.com 1.10,2013-04-18 06:55:00,
2013-04-18 01:10:00,35.8,15.0,29.94,NW,309,0.0,3.0,42,0.00,,,0.00,weatherlink.com 1.10,2013-04-18 07:10:00,
2013-04-18 01:25:00,35.8,15.0,29.94,WSW,255,1.0,3.0,42,0.00,,,0.00,weatherlink.com 1.10,2013-04-18 07:25:00,
2013-04-18 01:40:00,36.6,14.0,29.95,WNW,295,2.0,7.0,39,0.00,,,0.00,weatherlink.com 1.10,2013-04-18 07:40:00,
2013-04-18 01:55:00,36.9,13.0,29.94,West,278,2.0,11.0,37,0.00,,,0.00,weatherlink.com 1.10,2013-04-18 07:55:00,
2013-04-18 02:10:00,36.2,13.0,29.95,WNW,292,2.0,6.0,38,0.00,,,0.00,weatherlink.com 1.10,2013-04-18 08:10:00,
2013-04-18 02:25:00,35.6,12.0,29.95,ENE,72,3.0,7.0,38,0.00,,,0.00,weatherlink.com 1.10,2013-04-18 08:25:00,
2013-04-18 02:40:00,35.5,11.0,29.95,North,351,5.0,15.0,37,0.00,,,0.00,weatherlink.com 1.10,2013-04-18 08:40:00,
2013-04-18 02:55:00,35.2,12.0,29.94,SE,133,3.0,12.0,38,0.00,,,0.00,weatherlink.com 1.10,2013-04-18 08:55:00,
2013-04-18 03:10:00,35.0,12.0,29.95,NW,314,3.0,11.0,38,0.00,,,0.00,weatherlink.com 1.10,2013-04-18 09:10:00,
2013-04-18 03:25:00,34.9,11.0,29.95,NNW,342,5.0,11.0,38,0.00,,,0.00,weatherlink.com 1.10,2013-04-18 09:25:00,
2013-04-18 03:40:00,34.9,11.0,29.95,SE,144,1.0,15.0,37,0.00,,,0.00,weatherlink.com 1.10,2013-04-18 09:40:00,
2013-04-18 03:55:00,34.4,11.0,29.96,SE,141,3.0,8.0,38,0.00,,,0.00,weatherlink.com 1.10,2013-04-18 09:55:00,
2013-04-18 04:11:00,34.0,11.0,29.97,NNW,336,0.0,6.0,38,0.00,,,0.00,weatherlink.com 1.10,2013-04-18 10:11:00,
2013-04-18 04:26:00,33.4,10.0,29.97,NW,306,0.0,3.0,38,0.00,,,0.00,weatherlink.com 1.10,2013-04-18 10:26:00,
2013-04-18 04:41:00,32.4,10.0,29.97,SW,234,2.0,3.0,39,0.00,,,0.00,weatherlink.com 1.10,2013-04-18 10:41:00,
2013-04-18 04:56:00,31.7,10.0,29.98,NE,46,1.0,2.0,40,0.00,,,0.00,weatherlink.com 1.10,2013-04-18 10:56:00,
2013-04-18 05:11:00,31.9,9.0,29.99,NE,51,0.0,3.0,39,0.00,,,0.00,weatherlink.com 1.10,2013-04-18 11:11:00,
2013-04-18 05:26:00,31.3,9.0,29.99,ENE,63,0.0,1.0,39,0.00,,,0.00,weatherlink.com 1.10,2013-04-18 11:26:00,
2013-04-18 05:41:00,30.9,7.0,30.00,NNW,340,4.0,4.0,37,0.00,,,0.00,weatherlink.com 1.10,2013-04-18 11:41:00,
2013-04-18 05:56:00,31.0,7.0,30.00,West,269,0.0,9.0,36,0.00,,,0.00,weatherlink.com 1.10,2013-04-18 11:56:00,
2013-04-18 06:41:00,29.6,7.0,30.02,SSW,210,1.0,2.0,38,0.00,,,0.00,weatherlink.com 1.10,2013-04-18 12:41:00,
2013-04-18 06:56:00,29.6,7.0,30.03,SW,215,0.0,3.0,38,0.00,,,0.00,weatherlink.com 1.10,2013-04-18 12:56:00,
2013-04-18 07:11:00,32.4,7.0,30.04,East,101,3.0,6.0,34,0.00,,,0.00,weatherlink.com 1.10,2013-04-18 13:11:00,
2013-04-18 07:26:00,33.9,7.0,30.05,NE,49,2.0,4.0,32,0.00,,,0.00,weatherlink.com 1.10,2013-04-18 13:26:00,
2013-04-18 07:41:00,34.5,6.0,30.07,SW,219,3.0,7.0,30,0.00,,,0.00,weatherlink.com 1.10,2013-04-18 13:41:00,
2013-04-18 07:56:00,34.2,6.0,30.07,NE,47,2.0,8.0,31,0.00,,,0.00,weatherlink.com 1.10,2013-04-18 13:56:00,
2013-04-18 08:11:00,34.8,6.0,30.08,NW,305,2.0,10.0,30,0.00,,,0.00,weatherlink.com 1.10,2013-04-18 14:11:00,
2013-04-18 08:26:00,35.8,6.0,30.08,NW,311,1.0,16.0,29,0.00,,,0.00,weatherlink.com 1.10,2013-04-18 14:26:00,
2013-04-18 08:41:00,36.5,6.0,30.09,West,276,1.0,8.0,28,0.00,,,0.00,weatherlink.com 1.10,2013-04-18 14:41:00,
2013-04-18 08:56:00,37.2,6.0,30.08,WNW,299,4.0,14.0,27,0.00,,,0.00,weatherlink.com 1.10,2013-04-18 14:56:00,
2013-04-18 09:11:00,37.8,6.0,30.08,North,1,10.0,15.0,26,0.00,,,0.00,weatherlink.com 1.10,2013-04-18 15:11:00,
2013-04-18 09:26:00,38.7,6.0,30.08,ENE,58,11.0,18.0,25,0.00,,,0.00,weatherlink.com 1.10,2013-04-18 15:26:00,
2013-04-18 09:41:00,39.8,7.0,30.08,SW,234,3.0,16.0,25,0.00,,,0.00,weatherlink.com 1.10,2013-04-18 15:41:00,
2013-04-18 09:56:00,40.5,6.0,30.08,NW,317,3.0,15.0,24,0.00,,,0.00,weatherlink.com 1.10,2013-04-18 15:56:00,
2013-04-18 10:12:00,41.8,6.0,30.08,NW,326,12.0,18.0,23,0.00,,,0.00,weatherlink.com 1.10,2013-04-18 16:12:00,
2013-04-18 10:27:00,41.8,5.0,30.08,NW,316,10.0,18.0,22,0.00,,,0.00,weatherlink.com 1.10,2013-04-18 16:27:00,
2013-04-18 10:42:00,43.7,5.0,30.08,West,278,7.0,17.0,20,0.00,,,0.00,weatherlink.com 1.10,2013-04-18 16:42:00,
2013-04-18 10:57:00,43.7,5.0,30.08,NNE,23,5.0,22.0,20,0.00,,,0.00,weatherlink.com 1.10,2013-04-18 16:57:00,
2013-04-18 11:12:00,44.1,4.0,30.09,East,81,9.0,20.0,19,0.00,,,0.00,weatherlink.com 1.10,2013-04-18 17:12:00,
2013-04-18 11:27:00,44.7,5.0,30.09,NW,304,13.0,19.0,19,0.00,,,0.00,weatherlink.com 1.10,2013-04-18 17:27:00,
2013-04-18 11:42:00,45.1,4.0,30.09,WNW,292,8.0,20.0,18,0.00,,,0.00,weatherlink.com 1.10,2013-04-18 17:42:00,
2013-04-18 11:57:00,45.2,3.0,30.09,WNW,295,9.0,20.0,17,0.00,,,0.00,weatherlink.com 1.10,2013-04-18 17:57:00,
2013-04-18 12:12:00,45.9,3.0,30.08,SW,219,8.0,25.0,17,0.00,,,0.00,weatherlink.com 1.10,2013-04-18 18:12:00,
2013-04-18 12:27:00,46.3,2.0,30.09,NNW,335,8.0,23.0,16,0.00,,,0.00,weatherlink.com 1.10,2013-04-18 18:27:00,
2013-04-18 12:42:00,46.1,2.0,30.08,North,6,7.0,16.0,16,0.00,,,0.00,weatherlink.com 1.10,2013-04-18 18:42:00,
2013-04-18 12:57:00,45.6,0.0,30.09,WNW,293,10.0,22.0,15,0.00,,,0.00,weatherlink.com 1.10,2013-04-18 18:57:00,
2013-04-18 13:12:00,47.1,0.0,30.09,WNW,285,8.0,18.0,14,0.00,,,0.00,weatherlink.com 1.10,2013-04-18 19:12:00,
2013-04-18 13:27:00,46.7,0.0,30.09,WNW,295,4.0,17.0,14,0.00,,,0.00,weatherlink.com 1.10,2013-04-18 19:27:00,
2013-04-18 13:42:00,47.1,1.0,30.09,NNW,345,10.0,20.0,15,0.00,,,0.00,weatherlink.com 1.10,2013-04-18 19:42:00,
2013-04-18 13:57:00,47.1,1.0,30.09,NW,307,6.0,19.0,15,0.00,,,0.00,weatherlink.com 1.10,2013-04-18 19:57:00,
2013-04-18 14:12:00,48.3,1.0,30.09,WSW,254,14.0,22.0,14,0.00,,,0.00,weatherlink.com 1.10,2013-04-18 20:12:00,
2013-04-18 14:27:00,47.9,1.0,30.10,WNW,293,9.0,21.0,14,0.00,,,0.00,weatherlink.com 1.10,2013-04-18 20:27:00,
2013-04-18 14:42:00,48.3,-1.0,30.10,West,278,5.0,22.0,13,0.00,,,0.00,weatherlink.com 1.10,2013-04-18 20:42:00,
2013-04-18 14:58:00,48.9,0.0,30.09,WNW,287,2.0,23.0,13,0.00,,,0.00,weatherlink.com 1.10,2013-04-18 20:58:00,
2013-04-18 15:13:00,49.0,0.0,30.10,NNE,30,10.0,22.0,13,0.00,,,0.00,weatherlink.com 1.10,2013-04-18 21:13:00,
2013-04-18 15:28:00,48.7,-2.0,30.10,North,354,7.0,26.0,12,0.00,,,0.00,weatherlink.com 1.10,2013-04-18 21:28:00,
2013-04-18 15:43:00,48.9,1.0,30.11,WNW,295,10.0,20.0,14,0.00,,,0.00,weatherlink.com 1.10,2013-04-18 21:43:00,
2013-04-18 15:58:00,48.5,-1.0,30.11,North,357,10.0,23.0,13,0.00,,,0.00,weatherlink.com 1.10,2013-04-18 21:58:00,
2013-04-18 16:13:00,49.0,0.0,30.10,NW,305,14.0,23.0,13,0.00,,,0.00,weatherlink.com 1.10,2013-04-18 22:13:00,
2013-04-18 16:28:00,49.5,0.0,30.11,West,263,10.0,32.0,13,0.00,,,0.00,weatherlink.com 1.10,2013-04-18 22:28:00,
2013-04-18 16:43:00,49.3,0.0,30.10,NNW,333,13.0,19.0,13,0.00,,,0.00,weatherlink.com 1.10,2013-04-18 22:43:00,
2013-04-18 16:58:00,48.8,1.0,30.11,WNW,297,5.0,25.0,14,0.00,,,0.00,weatherlink.com 1.10,2013-04-18 22:58:00,
2013-04-18 17:13:00,48.8,1.0,30.12,WNW,283,8.0,28.0,14,0.00,,,0.00,weatherlink.com 1.10,2013-04-18 23:13:00,
2013-04-18 17:28:00,48.1,-1.0,30.12,ENE,72,14.0,23.0,13,0.00,,,0.00,weatherlink.com 1.10,2013-04-18 23:28:00,
2013-04-18 17:43:00,48.9,0.0,30.12,West,279,4.0,19.0,13,0.00,,,0.00,weatherlink.com 1.10,2013-04-18 23:43:00,
2013-04-18 17:58:00,48.8,0.0,30.13,NNW,328,7.0,15.0,13,0.00,,,0.00,weatherlink.com 1.10,2013-04-18 23:58:00,
2013-04-18 18:13:00,48.4,-1.0,30.14,SW,220,7.0,20.0,13,0.00,,,0.00,weatherlink.com 1.10,2013-04-19 00:13:00,
2013-04-18 18:29:00,48.1,-3.0,30.14,WSW,257,5.0,18.0,12,0.00,,,0.00,weatherlink.com 1.10,2013-04-19 00:29:00,
2013-04-18 18:44:00,47.8,-1.0,30.15,East,82,10.0,18.0,13,0.00,,,0.00,weatherlink.com 1.10,2013-04-19 00:44:00,
2013-04-18 18:59:00,47.4,-1.0,30.15,WNW,294,11.0,17.0,13,0.00,,,0.00,weatherlink.com 1.10,2013-04-19 00:59:00,
2013-04-18 19:14:00,46.7,0.0,30.16,NW,319,6.0,19.0,14,0.00,,,0.00,weatherlink.com 1.10,2013-04-19 01:14:00,
2013-04-18 19:29:00,45.9,-1.0,30.17,East,94,12.0,19.0,14,0.00,,,0.00,weatherlink.com 1.10,2013-04-19 01:29:00,
2013-04-18 19:44:00,45.1,0.0,30.19,WNW,293,9.0,17.0,15,0.00,,,0.00,weatherlink.com 1.10,2013-04-19 01:44:00,
2013-04-18 19:59:00,44.5,-1.0,30.20,NW,304,4.0,18.0,15,0.00,,,0.00,weatherlink.com 1.10,2013-04-19 01:59:00,
2013-04-18 20:14:00,44.1,0.0,30.20,West,278,6.0,17.0,16,0.00,,,0.00,weatherlink.com 1.10,2013-04-19 02:14:00,
2013-04-18 20:29:00,43.5,1.0,30.21,WSW,238,5.0,15.0,17,0.00,,,0.00,weatherlink.com 1.10,2013-04-19 02:29:00,
2013-04-18 20:44:00,42.9,1.0,30.23,SSW,200,5.0,12.0,17,0.00,,,0.00,weatherlink.com 1.10,2013-04-19 02:44:00,
2013-04-18 20:59:00,42.7,1.0,30.24,NW,321,5.0,15.0,17,0.00,,,0.00,weatherlink.com 1.10,2013-04-19 02:59:00,
2013-04-18 21:14:00,42.4,1.0,30.25,West,278,6.0,11.0,18,0.00,,,0.00,weatherlink.com 1.10,2013-04-19 03:14:00,
2013-04-18 21:29:00,41.9,1.0,30.25,NNW,345,10.0,14.0,18,0.00,,,0.00,weatherlink.com 1.10,2013-04-19 03:29:00,
2013-04-18 21:45:00,41.6,2.0,30.25,WNW,286,7.0,14.0,19,0.00,,,0.00,weatherlink.com 1.10,2013-04-19 03:45:00,
2013-04-18 22:00:00,41.3,3.0,30.25,WSW,248,2.0,18.0,20,0.00,,,0.00,weatherlink.com 1.10,2013-04-19 04:00:00,
2013-04-18 22:15:00,41.1,3.0,30.25,WSW,250,8.0,15.0,20,0.00,,,0.00,weatherlink.com 1.10,2013-04-19 04:15:00,
2013-04-18 22:30:00,40.7,3.0,30.25,NE,36,4.0,15.0,21,0.00,,,0.00,weatherlink.com 1.10,2013-04-19 04:30:00,
2013-04-18 22:45:00,40.5,3.0,30.26,NW,305,8.0,17.0,21,0.00,,,0.00,weatherlink.com 1.10,2013-04-19 04:45:00,
2013-04-18 23:00:00,40.0,3.0,30.26,NW,314,8.0,16.0,21,0.00,,,0.00,weatherlink.com 1.10,2013-04-19 05:00:00,
2013-04-18 23:15:00,39.4,3.0,30.27,WNW,294,11.0,13.0,22,0.00,,,0.00,weatherlink.com 1.10,2013-04-19 05:15:00,
2013-04-18 23:30:00,38.9,3.0,30.27,NW,304,3.0,12.0,22,0.00,,,0.00,weatherlink.com 1.10,2013-04-19 05:30:00,
2013-04-18 23:46:00,38.5,3.0,30.28,NW,311,4.0,10.0,22,0.00,,,0.00,weatherlink.com 1.10,2013-04-19 05:46:00,